Time;durP1;ratioP1;P1;durP2;ratioP2;P2;SDS_P1;SDS_P2;PMS_P1;PMS_P2;Temp;Humidity;BMP_temperature;BMP_pressure;BME280_temperature;BME280_humidity;BME280_pressure;Samples;Min_cycle;Max_cycle;Signal;HPM_P1;HPM_P2
2022/12/01 00:01:49;;;;;;;40.60;25.80;;;4.00;99.90;;;;;;5071834;28;20284;-79
2022/12/01 00:04:15;;;;;;;45.80;27.27;;;4.00;99.90;;;;;;5071702;28;20233;-80
2022/12/01 00:06:42;;;;;;;40.10;25.80;;;4.00;99.90;;;;;;5071409;28;20260;-80
2022/12/01 00:11:55;;;;;;;40.17;24.13;;;4.00;99.90;;;;;;5071489;28;20303;-80
2022/12/01 00:14:22;;;;;;;36.17;22.63;;;3.90;99.90;;;;;;5070457;28;20255;-80
2022/12/01 00:16:49;;;;;;;40.80;24.10;;;3.90;99.90;;;;;;5070978;28;20275;-80
2022/12/01 00:19:16;;;;;;;36.67;22.77;;;3.90;99.90;;;;;;5070999;28;20284;-78
2022/12/01 00:21:43;;;;;;;38.83;22.90;;;3.90;99.90;;;;;;5070863;28;20205;-78
2022/12/01 00:24:13;;;;;;;34.30;21.40;;;3.80;99.90;;;;;;5080792;28;20204;-80
2022/12/01 00:26:40;;;;;;;36.70;23.23;;;3.80;99.90;;;;;;5091361;28;20201;-79
2022/12/01 00:29:07;;;;;;;38.60;24.10;;;3.80;99.90;;;;;;5083690;28;20225;-80
2022/12/01 00:31:34;;;;;;;38.77;24.30;;;3.80;99.90;;;;;;5071251;28;20292;-79
2022/12/01 00:34:02;;;;;;;38.37;23.53;;;3.80;99.90;;;;;;5070944;28;20233;-80
2022/12/01 00:36:28;;;;;;;39.97;24.00;;;3.80;99.90;;;;;;5070565;28;20200;-79
2022/12/01 00:38:56;;;;;;;38.23;22.90;;;3.80;99.90;;;;;;5071429;28;20198;-78
2022/12/01 00:41:25;;;;;;;38.93;23.10;;;3.70;99.90;;;;;;5071004;28;20224;-80
2022/12/01 00:43:52;;;;;;;31.23;19.97;;;3.70;99.90;;;;;;5070503;28;20328;-80
2022/12/01 00:46:19;;;;;;;37.47;22.13;;;3.70;99.90;;;;;;5071024;28;20237;-80
2022/12/01 00:48:46;;;;;;;35.33;22.67;;;3.70;99.90;;;;;;5071366;28;20217;-80
2022/12/01 00:51:13;;;;;;;37.13;23.73;;;3.70;99.90;;;;;;5070493;28;20194;-79
2022/12/01 00:53:39;;;;;;;36.00;22.70;;;3.70;99.90;;;;;;5076457;28;20193;-78
2022/12/01 00:56:07;;;;;;;32.17;21.73;;;3.70;99.90;;;;;;5090681;28;20303;-79
2022/12/01 00:58:35;;;;;;;33.77;22.70;;;3.70;99.90;;;;;;5089651;28;20724;-79
2022/12/01 01:01:03;;;;;;;31.27;21.10;;;3.70;99.90;;;;;;5073992;28;20292;-78
2022/12/01 01:03:30;;;;;;;45.20;26.47;;;3.70;99.90;;;;;;5034254;28;1108704;-79
2022/12/01 01:06:03;;;;;;;37.07;24.13;;;3.70;99.90;;;;;;5075285;28;20673;-81
2022/12/01 01:08:30;;;;;;;36.90;23.83;;;3.70;99.90;;;;;;5075082;28;20204;-80
2022/12/01 01:10:59;;;;;;;39.13;24.10;;;3.70;99.90;;;;;;5074897;28;20224;-79
2022/12/01 01:13:26;;;;;;;39.73;24.53;;;3.70;99.90;;;;;;5075360;28;20201;-78
2022/12/01 01:15:59;;;;;;;42.93;24.70;;;3.70;99.90;;;;;;5074925;28;20221;-79
2022/12/01 01:18:27;;;;;;;32.43;21.57;;;3.70;99.90;;;;;;5074331;28;20211;-78
2022/12/01 01:20:57;;;;;;;35.33;22.13;;;3.70;99.90;;;;;;5074658;28;20617;-79
2022/12/01 01:23:24;;;;;;;38.57;23.67;;;3.70;99.90;;;;;;5074426;28;20205;-81
2022/12/01 01:25:51;;;;;;;39.60;23.43;;;3.70;99.90;;;;;;5074261;28;20201;-80
2022/12/01 01:28:19;;;;;;;38.47;23.33;;;3.70;99.90;;;;;;5074533;28;20597;-81
2022/12/01 01:30:46;;;;;;;44.23;24.60;;;3.80;99.90;;;;;;5074951;28;20221;-80
2022/12/01 01:33:14;;;;;;;38.97;24.20;;;3.80;99.90;;;;;;5074432;28;20208;-80
2022/12/01 01:35:41;;;;;;;41.00;23.50;;;3.80;99.90;;;;;;5074850;28;20203;-80
2022/12/01 01:38:08;;;;;;;39.97;23.00;;;3.80;99.90;;;;;;5074963;28;20219;-81
2022/12/01 01:40:34;;;;;;;40.80;24.50;;;3.80;99.90;;;;;;5074146;28;20208;-79
2022/12/01 01:43:01;;;;;;;39.70;23.97;;;3.80;99.90;;;;;;5075524;28;20504;-80
2022/12/01 01:45:29;;;;;;;36.20;22.73;;;3.80;99.90;;;;;;5074464;28;20197;-79
2022/12/01 01:47:59;;;;;;;39.37;23.20;;;3.80;99.90;;;;;;5087299;28;20596;-81
2022/12/01 01:50:29;;;;;;;36.97;21.87;;;3.80;99.90;;;;;;5081677;28;20209;-81
2022/12/01 01:53:01;;;;;;;37.47;22.77;;;3.70;99.90;;;;;;5074470;28;20197;-80
2022/12/01 01:55:29;;;;;;;34.03;20.30;;;3.70;99.90;;;;;;5074637;28;20502;-81
2022/12/01 01:57:56;;;;;;;35.17;21.67;;;3.70;99.90;;;;;;5075095;28;20197;-80
2022/12/01 02:00:23;;;;;;;36.70;22.23;;;3.70;99.90;;;;;;5074062;28;20205;-80
2022/12/01 02:02:51;;;;;;;35.30;22.10;;;3.60;99.90;;;;;;5074311;28;20198;-81
2022/12/01 02:05:21;;;;;;;33.13;20.80;;;3.60;99.90;;;;;;5094041;28;20250;-80
2022/12/01 02:07:51;;;;;;;33.17;20.63;;;3.60;99.90;;;;;;5092659;28;20208;-81
2022/12/01 02:10:22;;;;;;;33.43;20.57;;;3.60;99.90;;;;;;5077962;28;20213;-80
2022/12/01 02:13:07;;;;;;;34.33;20.90;;;3.50;99.90;;;;;;5074255;28;20198;-80
2022/12/01 02:15:41;;;;;;;36.10;20.87;;;3.50;99.90;;;;;;5073628;28;20244;-80
2022/12/01 02:18:23;;;;;;;31.30;20.73;;;3.50;99.90;;;;;;5073825;28;20201;-80
2022/12/01 02:21:26;;;;;;;37.93;23.77;;;3.40;99.90;;;;;;5073416;28;20189;-80
2022/12/01 02:24:26;;;;;;;34.77;21.57;;;3.30;99.90;;;;;;5073529;28;20605;-81
2022/12/01 02:27:01;;;;;;;35.43;21.40;;;3.30;99.90;;;;;;5073540;28;20197;-80
2022/12/01 02:30:04;;;;;;;37.57;21.67;;;3.20;99.90;;;;;;5073148;28;20645;-80
2022/12/01 02:32:43;;;;;;;33.77;21.80;;;3.20;99.90;;;;;;5073100;28;20209;-80
2022/12/01 02:35:16;;;;;;;36.33;20.87;;;3.10;99.90;;;;;;5073023;28;20197;-80
2022/12/01 02:37:49;;;;;;;34.10;22.00;;;3.10;99.90;;;;;;5073681;28;20206;-79
2022/12/01 02:40:22;;;;;;;37.40;21.80;;;3.10;99.90;;;;;;5073337;28;20192;-80
2022/12/01 02:42:55;;;;;;;36.40;22.13;;;3.00;99.90;;;;;;5072791;28;20209;-80
2022/12/01 02:45:31;;;;;;;36.87;22.30;;;3.00;99.90;;;;;;5073225;28;20209;-80
2022/12/01 02:48:02;;;;;;;35.33;22.10;;;3.00;99.90;;;;;;5073585;28;20215;-80
2022/12/01 02:50:32;;;;;;;39.37;21.33;;;3.00;99.90;;;;;;5072578;28;20225;-79
2022/12/01 02:53:01;;;;;;;37.00;21.33;;;3.00;99.90;;;;;;5072467;28;20512;-79
2022/12/01 02:55:28;;;;;;;40.47;22.70;;;3.00;99.90;;;;;;5073112;28;20198;-80
2022/12/01 02:57:54;;;;;;;36.93;21.97;;;3.00;99.90;;;;;;5072546;28;20549;-79
2022/12/01 03:00:21;;;;;;;39.17;23.50;;;3.00;99.90;;;;;;5072489;28;20198;-80
2022/12/01 03:03:14;;;;;;;36.60;22.13;;;3.00;99.90;;;;;;5071648;28;20193;-80
2022/12/01 03:05:51;;;;;;;36.50;21.30;;;3.00;99.90;;;;;;5072020;28;20232;-80
2022/12/01 03:08:26;;;;;;;34.60;21.13;;;3.00;99.90;;;;;;5072830;28;20200;-78
2022/12/01 03:10:55;;;;;;;36.23;22.20;;;3.00;99.90;;;;;;5072597;28;20258;-79
2022/12/01 03:13:35;;;;;;;32.47;19.20;;;3.00;99.90;;;;;;5072076;28;20589;-81
2022/12/01 03:16:08;;;;;;;33.90;20.10;;;2.90;99.90;;;;;;5072868;28;20221;-81
2022/12/01 03:18:40;;;;;;;30.67;19.83;;;2.90;99.90;;;;;;5072052;28;20236;-80
2022/12/01 03:21:14;;;;;;;31.50;19.43;;;2.80;99.90;;;;;;5072968;28;20186;-79
2022/12/01 03:23:45;;;;;;;33.00;19.43;;;2.90;99.90;;;;;;5072254;28;20197;-79
2022/12/01 03:26:16;;;;;;;30.73;19.27;;;2.80;99.90;;;;;;5073647;28;20578;-78
2022/12/01 03:28:47;;;;;;;28.27;18.40;;;2.80;99.90;;;;;;5072448;28;20191;-81
2022/12/01 03:31:18;;;;;;;27.47;18.67;;;2.80;99.90;;;;;;5072057;28;20219;-80
2022/12/01 03:33:50;;;;;;;30.83;18.87;;;2.80;99.90;;;;;;5072794;28;20217;-80
2022/12/01 03:36:24;;;;;;;30.57;19.13;;;2.80;99.90;;;;;;5072752;28;20189;-80
2022/12/01 03:38:55;;;;;;;27.80;17.60;;;2.70;99.90;;;;;;5071979;28;20213;-80
2022/12/01 03:41:27;;;;;;;31.37;20.20;;;2.70;99.90;;;;;;5072173;28;20817;-79
2022/12/01 03:44:03;;;;;;;32.43;19.53;;;2.70;99.90;;;;;;5072686;28;20194;-79
2022/12/01 03:46:39;;;;;;;29.93;18.97;;;2.70;99.90;;;;;;5087104;28;20204;-80
2022/12/01 03:49:08;;;;;;;32.47;20.13;;;2.60;99.90;;;;;;5090202;28;20773;-81
2022/12/01 03:51:43;;;;;;;32.60;20.40;;;2.70;99.90;;;;;;5072587;28;20197;-80
2022/12/01 03:54:16;;;;;;;31.10;19.63;;;2.60;99.90;;;;;;5071612;28;20262;-79
2022/12/01 03:56:48;;;;;;;36.33;20.53;;;2.60;99.90;;;;;;5072242;28;20204;-80
2022/12/01 03:59:16;;;;;;;34.43;21.73;;;2.60;99.90;;;;;;5072171;28;20209;-81
2022/12/01 04:01:45;;;;;;;34.90;21.00;;;2.60;99.90;;;;;;5072207;28;20203;-79
2022/12/01 04:04:14;;;;;;;35.33;20.57;;;2.60;99.90;;;;;;5071964;28;20707;-79
2022/12/01 04:06:43;;;;;;;32.73;19.83;;;2.50;99.90;;;;;;5071660;28;20209;-79
2022/12/01 04:09:10;;;;;;;33.30;20.23;;;2.50;99.90;;;;;;5072342;28;20664;-79
2022/12/01 04:14:22;;;;;;;31.97;20.23;;;2.50;99.90;;;;;;5071589;28;20204;-80
2022/12/01 04:16:49;;;;;;;39.53;22.70;;;2.50;99.90;;;;;;5072352;28;20228;-80
2022/12/01 04:19:17;;;;;;;37.87;22.57;;;2.50;99.90;;;;;;5072236;28;20292;-80
2022/12/01 04:21:44;;;;;;;42.67;23.77;;;2.50;99.90;;;;;;5071687;28;20193;-80
2022/12/01 04:24:12;;;;;;;39.67;23.03;;;2.50;99.90;;;;;;5072318;28;20209;-81
2022/12/01 04:26:40;;;;;;;40.57;23.80;;;2.50;99.90;;;;;;5071872;28;20198;-80
2022/12/01 04:29:09;;;;;;;39.30;22.63;;;2.50;99.90;;;;;;5070607;28;20286;-81
2022/12/01 04:31:36;;;;;;;35.83;21.70;;;2.50;99.90;;;;;;5072738;28;20221;-80
2022/12/01 04:34:04;;;;;;;40.07;22.33;;;2.50;99.90;;;;;;5075400;28;20202;-80
2022/12/01 04:36:33;;;;;;;37.60;24.17;;;2.50;99.90;;;;;;5075157;28;20591;-80
2022/12/01 04:39:00;;;;;;;32.77;20.93;;;2.60;99.90;;;;;;5075536;28;20201;-79
2022/12/01 04:41:28;;;;;;;33.40;21.17;;;2.60;99.90;;;;;;5075089;28;20231;-80
2022/12/01 04:43:55;;;;;;;34.07;19.73;;;2.60;99.90;;;;;;5075738;28;20201;-80
2022/12/01 04:46:23;;;;;;;32.60;20.60;;;2.60;99.90;;;;;;5095946;28;20263;-79
2022/12/01 04:48:49;;;;;;;34.87;18.90;;;2.60;99.90;;;;;;5095570;28;20196;-79
2022/12/01 04:51:16;;;;;;;33.23;20.87;;;2.60;99.90;;;;;;5095721;28;20220;-79
2022/12/01 04:53:45;;;;;;;40.23;22.47;;;2.70;99.90;;;;;;5083329;28;20217;-80
2022/12/01 04:56:12;;;;;;;33.40;20.40;;;2.70;99.90;;;;;;5075194;28;20606;-79
2022/12/01 04:58:39;;;;;;;41.77;23.90;;;2.70;99.90;;;;;;5075366;28;20197;-80
2022/12/01 05:01:08;;;;;;;40.97;23.17;;;2.70;99.90;;;;;;5075896;28;20284;-81
2022/12/01 05:03:37;;;;;;;43.80;24.17;;;2.80;99.90;;;;;;5074509;28;20281;-80
2022/12/01 05:06:05;;;;;;;40.47;23.43;;;2.90;99.90;;;;;;5075222;28;20292;-81
2022/12/01 05:08:33;;;;;;;42.80;23.63;;;2.90;99.90;;;;;;5075552;28;20207;-80
2022/12/01 05:11:02;;;;;;;45.80;24.20;;;3.00;99.90;;;;;;5081183;28;20273;-80
2022/12/01 05:13:29;;;;;;;49.20;27.13;;;3.00;99.90;;;;;;5095374;28;20201;-80
2022/12/01 05:16:05;;;;;;;53.13;28.47;;;3.00;99.90;;;;;;5095289;28;20221;-80
2022/12/01 05:18:32;;;;;;;65.03;32.43;;;3.10;99.90;;;;;;5094783;28;20231;-81
2022/12/01 05:20:57;;;;;;;53.00;28.87;;;3.20;99.90;;;;;;5087773;28;20205;-80
2022/12/01 05:23:25;;;;;;;58.83;30.57;;;3.30;99.90;;;;;;5074877;28;20250;-79
2022/12/01 05:25:52;;;;;;;56.80;30.53;;;3.30;99.90;;;;;;5075208;28;20227;-80
2022/12/01 05:28:22;;;;;;;60.60;32.47;;;3.40;99.90;;;;;;5075450;28;20240;-80
2022/12/01 05:30:50;;;;;;;60.17;32.00;;;3.40;99.90;;;;;;5074771;28;20550;-80
2022/12/01 05:33:16;;;;;;;64.47;33.20;;;3.50;99.90;;;;;;5074493;28;20205;-80
2022/12/01 05:35:43;;;;;;;75.13;35.67;;;3.50;99.90;;;;;;5074431;28;20593;-80
2022/12/01 05:38:10;;;;;;;74.97;36.90;;;3.60;99.90;;;;;;5084141;28;20611;-80
2022/12/01 05:40:38;;;;;;;73.03;35.73;;;3.70;99.90;;;;;;5094663;28;20607;-80
2022/12/01 05:43:05;;;;;;;81.17;37.70;;;3.80;99.90;;;;;;5095244;28;20207;-80
2022/12/01 05:45:35;;;;;;;72.93;35.67;;;3.80;99.90;;;;;;5092778;28;20211;-80
2022/12/01 05:48:03;;;;;;;82.23;38.40;;;3.90;99.90;;;;;;5094841;28;20200;-80
2022/12/01 05:50:30;;;;;;;75.10;35.80;;;4.00;99.90;;;;;;5095057;28;20221;-80
2022/12/01 05:52:57;;;;;;;74.13;34.33;;;4.00;99.90;;;;;;5090310;28;20288;-81
2022/12/01 05:55:24;;;;;;;72.97;36.87;;;4.10;99.90;;;;;;5074694;28;20213;-81
2022/12/01 05:57:51;;;;;;;79.33;38.03;;;4.10;99.90;;;;;;5074660;28;20212;-80
2022/12/01 06:00:19;;;;;;;67.00;35.07;;;4.10;99.90;;;;;;5074317;28;20528;-80
2022/12/01 06:02:47;;;;;;;70.37;35.20;;;4.10;99.90;;;;;;5088793;28;20207;-81
2022/12/01 06:05:15;;;;;;;76.77;36.77;;;4.20;99.90;;;;;;5093613;28;20247;-81
2022/12/01 06:07:42;;;;;;;81.53;38.77;;;4.20;99.90;;;;;;5087050;28;20548;-81
2022/12/01 06:10:10;;;;;;;75.67;36.43;;;4.20;99.90;;;;;;5074353;28;20221;-80
2022/12/01 06:12:37;;;;;;;87.23;37.40;;;4.20;99.90;;;;;;5074428;28;20209;-80
2022/12/01 06:15:06;;;;;;;75.77;35.47;;;4.30;99.90;;;;;;5074443;28;20208;-80
2022/12/01 06:17:33;;;;;;;71.17;35.93;;;4.30;99.90;;;;;;5074255;28;20213;-81
2022/12/01 06:20:02;;;;;;;68.77;33.30;;;4.30;99.90;;;;;;5074116;28;20200;-81
2022/12/01 06:22:28;;;;;;;72.93;35.43;;;4.30;99.90;;;;;;5074626;28;20207;-82
2022/12/01 06:24:55;;;;;;;72.83;36.07;;;4.40;99.90;;;;;;5074128;28;20205;-81
2022/12/01 06:27:23;;;;;;;73.90;36.13;;;4.40;99.90;;;;;;5073803;28;20206;-80
2022/12/01 06:29:50;;;;;;;84.50;40.67;;;4.40;99.90;;;;;;5073883;28;20732;-82
2022/12/01 06:32:17;;;;;;;90.93;38.47;;;4.50;99.90;;;;;;5073971;28;20225;-82
2022/12/01 06:34:43;;;;;;;92.70;39.87;;;4.50;99.90;;;;;;5074107;28;20497;-82
2022/12/01 06:37:14;;;;;;;89.57;40.73;;;4.60;99.90;;;;;;5074056;28;20204;-80
2022/12/01 06:39:41;;;;;;;94.93;40.60;;;4.60;99.90;;;;;;5074252;28;20462;-80
2022/12/01 06:42:08;;;;;;;97.23;40.57;;;4.70;99.90;;;;;;5073279;28;20532;-81
2022/12/01 06:44:34;;;;;;;93.43;41.43;;;4.70;99.90;;;;;;5073702;28;20201;-81
2022/12/01 06:47:01;;;;;;;96.07;42.07;;;4.80;99.90;;;;;;5073904;28;20255;-82
2022/12/01 06:49:28;;;;;;;91.90;39.93;;;4.80;99.90;;;;;;5074871;28;20201;-82
2022/12/01 06:51:55;;;;;;;110.57;46.60;;;4.80;99.90;;;;;;5086536;28;20316;-82
2022/12/01 06:54:23;;;;;;;94.03;40.63;;;4.90;99.90;;;;;;5073197;28;20201;-81
2022/12/01 06:56:50;;;;;;;102.17;43.27;;;4.90;99.90;;;;;;5073070;28;20194;-83
2022/12/01 06:59:17;;;;;;;99.87;41.90;;;5.00;99.90;;;;;;5083344;28;20584;-83
2022/12/01 07:01:44;;;;;;;88.50;41.60;;;5.00;99.90;;;;;;5092327;28;20193;-82
2022/12/01 07:04:11;;;;;;;97.37;42.77;;;5.00;99.90;;;;;;5072060;28;20247;-81
2022/12/01 07:06:38;;;;;;;99.50;43.80;;;5.00;99.90;;;;;;5073178;28;20258;-81
2022/12/01 07:09:04;;;;;;;91.13;41.53;;;5.00;99.90;;;;;;5072590;28;20208;-83
2022/12/01 07:11:35;;;;;;;96.97;42.47;;;5.00;99.90;;;;;;5073382;28;20250;-82
2022/12/01 07:14:03;;;;;;;92.23;40.07;;;5.00;99.90;;;;;;5074049;28;20193;-82
2022/12/01 07:16:30;;;;;;;88.63;40.37;;;5.00;99.90;;;;;;5077711;28;20667;-81
2022/12/01 07:18:58;;;;;;;93.73;42.90;;;5.00;99.90;;;;;;5096189;28;20207;-82
2022/12/01 07:21:25;;;;;;;96.97;42.97;;;5.00;99.90;;;;;;5086885;28;20216;-81
2022/12/01 07:23:52;;;;;;;98.83;44.07;;;5.00;99.90;;;;;;5097678;22;20235;-82
2022/12/01 07:26:19;;;;;;;85.47;39.23;;;5.00;99.90;;;;;;5093769;28;20207;-81
2022/12/01 07:28:47;;;;;;;77.87;38.80;;;5.00;99.90;;;;;;5092875;28;20204;-83
2022/12/01 07:31:16;;;;;;;92.23;40.37;;;5.00;99.90;;;;;;5073081;28;20513;-82
2022/12/01 07:33:43;;;;;;;83.10;40.23;;;5.00;99.90;;;;;;5077397;28;20201;-82
2022/12/01 07:36:12;;;;;;;84.67;38.93;;;5.00;99.90;;;;;;5092209;28;20201;-82
2022/12/01 07:38:39;;;;;;;73.13;36.60;;;5.00;99.90;;;;;;5087937;28;20228;-82
2022/12/01 07:41:08;;;;;;;77.20;38.77;;;5.00;99.90;;;;;;5093327;28;20593;-81
2022/12/01 07:43:35;;;;;;;76.47;36.60;;;5.00;99.90;;;;;;5093296;28;20189;-82
2022/12/01 07:46:09;;;;;;;87.97;40.33;;;5.00;99.90;;;;;;5079703;28;20582;-82
2022/12/01 07:48:37;;;;;;;90.77;39.67;;;5.00;99.90;;;;;;5088460;28;20528;-82
2022/12/01 07:51:04;;;;;;;82.97;38.13;;;5.00;99.90;;;;;;5093324;28;20217;-82
2022/12/01 07:53:32;;;;;;;82.97;38.43;;;5.00;99.90;;;;;;5093639;28;20201;-83
2022/12/01 07:55:59;;;;;;;83.10;37.37;;;5.10;99.90;;;;;;5084787;28;20216;-82
2022/12/01 07:58:26;;;;;;;80.67;37.00;;;5.10;99.90;;;;;;5072914;28;20204;-83
2022/12/01 08:00:53;;;;;;;82.03;38.43;;;5.10;99.90;;;;;;5073359;28;20594;-82
2022/12/01 08:03:22;;;;;;;71.27;35.03;;;5.10;99.90;;;;;;5090798;28;20204;-82
2022/12/01 08:05:56;;;;;;;73.93;36.00;;;5.10;99.90;;;;;;5093388;28;20561;-83
2022/12/01 08:08:23;;;;;;;75.20;36.30;;;5.10;99.90;;;;;;5098229;28;20203;-84
2022/12/01 08:10:50;;;;;;;80.00;38.97;;;5.10;99.90;;;;;;5091229;28;20227;-81
2022/12/01 08:13:17;;;;;;;74.00;36.33;;;5.10;99.90;;;;;;5076954;28;20589;-82
2022/12/01 08:15:44;;;;;;;62.30;33.10;;;5.20;99.90;;;;;;5093481;28;20232;-80
2022/12/01 08:18:11;;;;;;;72.10;32.70;;;5.20;99.90;;;;;;5096797;28;20588;-82
2022/12/01 08:20:39;;;;;;;72.93;35.40;;;5.20;99.90;;;;;;5097205;28;20200;-79
2022/12/01 08:23:07;;;;;;;86.10;39.63;;;5.20;99.90;;;;;;5096060;28;20267;-83
2022/12/01 08:25:33;;;;;;;88.77;40.20;;;5.20;99.90;;;;;;5096626;28;20199;-83
2022/12/01 08:28:01;;;;;;;88.90;40.53;;;5.30;99.90;;;;;;5097109;28;20197;-83
2022/12/01 08:30:28;;;;;;;87.47;41.33;;;5.30;99.90;;;;;;5097862;28;20196;-83
2022/12/01 08:32:56;;;;;;;81.67;38.57;;;5.30;99.90;;;;;;5096063;28;20224;-83
2022/12/01 08:35:23;;;;;;;87.10;38.57;;;5.30;99.90;;;;;;5097462;28;20201;-80
2022/12/01 08:37:53;;;;;;;84.63;40.10;;;5.40;99.90;;;;;;5097644;28;20200;-83
2022/12/01 08:40:20;;;;;;;81.57;38.83;;;5.40;99.90;;;;;;5096750;28;20204;-80
2022/12/01 08:42:47;;;;;;;87.83;40.90;;;5.40;99.90;;;;;;5097020;28;20197;-82
2022/12/01 08:45:14;;;;;;;88.57;41.37;;;5.50;99.90;;;;;;5098541;28;20604;-80
2022/12/01 08:47:41;;;;;;;94.47;44.13;;;5.50;99.90;;;;;;5116978;28;20196;-83
2022/12/01 08:50:09;;;;;;;95.40;45.13;;;5.50;99.90;;;;;;5117079;28;20291;-80
2022/12/01 08:52:37;;;;;;;94.23;43.70;;;5.60;99.90;;;;;;5082760;28;20278;-80
2022/12/01 08:55:07;;;;;;;87.07;42.70;;;5.60;99.90;;;;;;5075348;28;20284;-80
2022/12/01 08:57:36;;;;;;;87.83;41.03;;;5.70;99.90;;;;;;5075723;28;20292;-81
2022/12/01 09:00:04;;;;;;;86.10;39.17;;;5.70;99.90;;;;;;5076320;28;20205;-83
2022/12/01 09:02:31;;;;;;;87.77;41.43;;;5.70;99.90;;;;;;5075989;28;20292;-82
2022/12/01 09:04:58;;;;;;;72.90;38.67;;;5.80;99.90;;;;;;5088524;28;20200;-82
2022/12/01 09:07:24;;;;;;;84.60;40.57;;;5.80;99.90;;;;;;5096835;28;20203;-83
2022/12/01 09:09:51;;;;;;;90.60;41.70;;;5.80;99.90;;;;;;5094272;28;20196;-83
2022/12/01 09:12:20;;;;;;;105.10;45.83;;;5.90;99.90;;;;;;5096419;28;20216;-83
2022/12/01 09:14:48;;;;;;;101.80;46.47;;;5.90;99.90;;;;;;5096637;28;20200;-83
2022/12/01 09:17:15;;;;;;;101.33;45.60;;;5.90;99.90;;;;;;5095388;28;20797;-82
2022/12/01 09:19:42;;;;;;;94.80;43.20;;;5.90;99.90;;;;;;5096281;28;20200;-83
2022/12/01 09:22:10;;;;;;;85.87;42.23;;;6.00;99.90;;;;;;5095549;28;20232;-82
2022/12/01 09:24:37;;;;;;;89.47;41.30;;;6.00;99.90;;;;;;5096513;28;20193;-82
2022/12/01 09:27:04;;;;;;;103.23;45.40;;;6.00;99.90;;;;;;5096299;28;20196;-83
2022/12/01 09:29:33;;;;;;;107.50;46.53;;;6.10;99.90;;;;;;5084309;28;20270;-83
2022/12/01 09:32:00;;;;;;;105.93;46.23;;;6.10;99.90;;;;;;5076002;28;20233;-82
2022/12/01 09:34:29;;;;;;;85.90;43.53;;;6.00;99.90;;;;;;5075938;28;20205;-83
2022/12/01 09:36:57;;;;;;;90.67;42.20;;;6.00;99.90;;;;;;5092336;28;20203;-83
2022/12/01 09:39:25;;;;;;;96.77;43.47;;;6.00;99.90;;;;;;5096270;28;20196;-82
2022/12/01 09:41:56;;;;;;;109.37;46.97;;;6.00;99.90;;;;;;5095014;28;20277;-83
2022/12/01 09:44:37;;;;;;;104.17;46.47;;;6.00;99.90;;;;;;5095715;28;20345;-82
2022/12/01 09:47:11;;;;;;;105.33;44.23;;;6.00;99.90;;;;;;5096253;28;20258;-83
2022/12/01 09:49:54;;;;;;;97.67;43.13;;;6.00;99.90;;;;;;5082049;28;20209;-83
2022/12/01 09:52:22;;;;;;;95.83;43.97;;;6.00;99.90;;;;;;5073952;28;20503;-83
2022/12/01 09:54:50;;;;;;;95.47;42.10;;;6.00;99.90;;;;;;5074362;28;20865;-82
2022/12/01 09:57:27;;;;;;;94.00;44.00;;;6.00;99.90;;;;;;5091952;28;20196;-83
2022/12/01 09:59:56;;;;;;;95.27;43.87;;;6.10;99.90;;;;;;5095048;28;20203;-85
2022/12/01 10:02:30;;;;;;;103.77;46.50;;;6.10;99.90;;;;;;5078645;28;20201;-85
2022/12/01 10:05:01;;;;;;;94.63;43.30;;;6.10;99.90;;;;;;5076233;28;20276;-86
2022/12/01 10:07:33;;;;;;;101.53;44.93;;;6.10;99.90;;;;;;5076035;28;20652;-83
2022/12/01 10:10:05;;;;;;;102.30;46.60;;;6.10;99.90;;;;;;5081392;28;20197;-85
2022/12/01 10:12:34;;;;;;;106.53;47.43;;;6.10;99.90;;;;;;5095617;28;20228;-86
2022/12/01 10:15:15;;;;;;;103.30;44.87;;;6.20;99.90;;;;;;5095066;28;20593;-85
2022/12/01 10:17:51;;;;;;;96.30;44.40;;;6.20;99.90;;;;;;5076004;28;20217;-85
2022/12/01 10:20:24;;;;;;;98.57;43.77;;;6.20;99.90;;;;;;5059068;28;20211;-86
2022/12/01 10:23:26;;;;;;;101.47;44.77;;;6.20;99.90;;;;;;5090768;28;20320;-84
2022/12/01 10:25:58;;;;;;;103.00;45.93;;;6.30;99.90;;;;;;5081073;28;20257;-84
2022/12/01 10:28:43;;;;;;;91.43;41.47;;;6.30;99.90;;;;;;5075490;28;20197;-86
2022/12/01 10:31:18;;;;;;;92.33;43.20;;;6.30;99.90;;;;;;5075836;28;20289;-86
2022/12/01 10:33:56;;;;;;;97.17;44.43;;;6.30;99.90;;;;;;5075159;28;20500;-86
2022/12/01 10:36:24;;;;;;;97.10;43.83;;;6.40;99.90;;;;;;5086788;28;20203;-86
2022/12/01 10:38:52;;;;;;;95.37;42.53;;;6.40;99.90;;;;;;5084635;22;20241;-87
2022/12/01 10:41:22;;;;;;;89.13;39.13;;;6.40;99.90;;;;;;5073304;28;20221;-86
2022/12/01 10:43:51;;;;;;;80.43;38.07;;;6.50;99.90;;;;;;5072990;28;20219;-86
2022/12/01 10:46:25;;;;;;;88.33;40.17;;;6.50;99.90;;;;;;5055121;28;20209;-85
2022/12/01 10:48:54;;;;;;;89.03;40.50;;;6.50;99.90;;;;;;5054337;28;20437;-86
2022/12/01 10:51:22;;;;;;;75.63;38.10;;;6.50;99.90;;;;;;5071065;28;20244;-85
2022/12/01 10:53:49;;;;;;;80.30;37.70;;;6.50;99.90;;;;;;5066878;28;20202;-84
2022/12/01 10:56:18;;;;;;;79.77;39.90;;;6.50;99.90;;;;;;5054888;28;20205;-85
2022/12/01 10:58:49;;;;;;;90.63;39.73;;;6.60;99.90;;;;;;5053826;28;20520;-85
2022/12/01 11:01:19;;;;;;;79.37;37.90;;;6.60;99.90;;;;;;5056773;28;20215;-86
2022/12/01 11:03:53;;;;;;;78.93;39.40;;;6.70;99.90;;;;;;5074294;28;20208;-85
2022/12/01 11:06:26;;;;;;;81.53;39.27;;;6.70;99.90;;;;;;5074763;28;20201;-84
2022/12/01 11:08:56;;;;;;;74.70;37.10;;;6.80;99.90;;;;;;5074463;28;20205;-85
2022/12/01 11:11:28;;;;;;;77.17;39.40;;;6.80;99.90;;;;;;5073951;28;20480;-85
2022/12/01 11:13:55;;;;;;;71.97;34.93;;;6.90;99.90;;;;;;5074132;28;20215;-86
2022/12/01 11:16:38;;;;;;;72.40;37.60;;;6.90;99.90;;;;;;5083006;28;20224;-85
2022/12/01 11:19:19;;;;;;;69.17;35.07;;;6.90;99.90;;;;;;5094017;28;20220;-86
2022/12/01 11:21:50;;;;;;;71.80;35.37;;;6.90;99.90;;;;;;5093764;28;20496;-85
2022/12/01 11:24:28;;;;;;;68.53;33.40;;;6.90;99.90;;;;;;5094454;28;20337;-86
2022/12/01 11:26:56;;;;;;;63.27;31.60;;;6.90;99.90;;;;;;5094218;28;20201;-85
2022/12/01 11:29:30;;;;;;;54.30;29.63;;;7.00;99.90;;;;;;5094313;28;20564;-85
2022/12/01 11:31:59;;;;;;;53.10;29.30;;;7.00;99.90;;;;;;5092858;28;20224;-85
2022/12/01 11:34:29;;;;;;;51.60;29.67;;;7.10;99.90;;;;;;5075330;28;20207;-84
2022/12/01 11:36:59;;;;;;;47.23;27.50;;;7.10;99.90;;;;;;5074308;28;20870;-86
2022/12/01 11:39:30;;;;;;;46.73;26.00;;;7.10;99.90;;;;;;5074813;28;20193;-85
2022/12/01 11:42:00;;;;;;;48.87;25.47;;;7.10;99.90;;;;;;5074363;28;20201;-85
2022/12/01 11:44:29;;;;;;;43.00;23.53;;;7.20;99.90;;;;;;5074318;28;20201;-85
2022/12/01 11:46:57;;;;;;;40.20;24.27;;;7.20;99.90;;;;;;5074480;28;20246;-84
2022/12/01 11:49:28;;;;;;;40.83;22.73;;;7.30;99.90;;;;;;5074245;28;20205;-85
2022/12/01 11:51:57;;;;;;;37.23;23.80;;;7.30;99.90;;;;;;5086367;28;20212;-85
2022/12/01 11:54:25;;;;;;;36.70;22.50;;;7.40;99.90;;;;;;5089548;28;20202;-85
2022/12/01 11:56:54;;;;;;;33.90;21.10;;;7.40;99.90;;;;;;5074117;28;20209;-84
2022/12/01 11:59:24;;;;;;;33.90;20.60;;;7.40;99.90;;;;;;5074141;28;20229;-85
2022/12/01 12:02:02;;;;;;;34.57;20.60;;;7.40;99.90;;;;;;5074085;28;20190;-86
2022/12/01 12:04:53;;;;;;;31.30;20.87;;;7.50;99.90;;;;;;5073749;28;20201;-83
2022/12/01 12:07:27;;;;;;;34.87;20.30;;;7.50;99.90;;;;;;5094389;28;20207;-84
2022/12/01 12:10:07;;;;;;;32.50;19.37;;;7.50;99.90;;;;;;5094121;28;20207;-85
2022/12/01 12:12:49;;;;;;;33.93;20.23;;;7.60;99.90;;;;;;5093611;28;20563;-85
2022/12/01 12:15:25;;;;;;;31.67;18.77;;;7.60;99.90;;;;;;5087218;28;20203;-84
2022/12/01 12:18:14;;;;;;;33.13;19.03;;;7.60;99.90;;;;;;5072678;28;20189;-84
2022/12/01 12:20:58;;;;;;;33.00;20.10;;;7.60;99.90;;;;;;5074176;28;20200;-85
2022/12/01 12:23:46;;;;;;;36.60;20.83;;;7.60;99.90;;;;;;5074080;28;20272;-85
2022/12/01 12:26:20;;;;;;;33.93;20.77;;;7.70;99.90;;;;;;5073956;28;20219;-85
2022/12/01 12:29:04;;;;;;;34.77;20.60;;;7.60;99.90;;;;;;5073813;28;20209;-85
2022/12/01 12:31:39;;;;;;;32.67;20.87;;;7.60;99.90;;;;;;5073999;28;20201;-85
2022/12/01 12:34:32;;;;;;;31.87;19.70;;;7.60;99.90;;;;;;5073877;28;20201;-87
2022/12/01 12:37:15;;;;;;;34.40;19.43;;;7.60;99.90;;;;;;5071464;28;20280;-86
2022/12/01 12:40:05;;;;;;;33.97;18.93;;;7.60;99.90;;;;;;5073568;28;20198;-84
2022/12/01 12:42:43;;;;;;;29.23;17.27;;;7.60;99.90;;;;;;5088106;28;20231;-83
2022/12/01 12:45:22;;;;;;;27.67;17.37;;;7.50;99.90;;;;;;5094542;28;20191;-86
2022/12/01 12:48:06;;;;;;;29.97;17.90;;;7.60;99.90;;;;;;5083344;28;20268;-83
2022/12/01 12:50:41;;;;;;;30.73;17.87;;;7.60;99.90;;;;;;5073358;28;20211;-83
2022/12/01 12:53:16;;;;;;;31.13;18.40;;;7.50;99.90;;;;;;5075298;28;20209;-84
2022/12/01 12:55:48;;;;;;;28.17;17.37;;;7.60;99.90;;;;;;5076907;28;20197;-86
2022/12/01 12:58:21;;;;;;;26.37;17.27;;;7.60;99.90;;;;;;5076959;28;20354;-84